Aeroporto :
LOGIN :

Iscrizione | Disclaimer

   EN    FR    IT 

 










Sommario :    VFR   VFR Marginale   IFR   IFR Intensivo   IFR Molto Intensivo
Visibilità : 
Base nubi : 
>= 8 km
>= 3000ft
5 / 8 km
1000 / 3000 ft
1500m / 5 km
500 / 1000 ft
800 / 1500m
200 / 500 ft
< 800m
< 200 ft
Simboli :   Temporali  Nebbia  Neve Forte  Precipitazioni Forti  Vento > 20 kt
SIGMETs :   Varie  Temporali  Ghiacco  Turbolenza  Onda orograficha  Ceneri Vulcaniche







- Altitudine del aeroporto : 197 ft
- Codice IATA : XOG
- Carte del aeroporto


LFMO - Orange

ULTIMO METAR :
  • 240430Z AUTO 00000KT CAVOK 12/11 Q1014 NOSIG

METARs OBSOLETI :
  • 240400Z AUTO 00000KT CAVOK 11/10 Q1014 NOSIG
  • 240330Z AUTO 27002KT CAVOK 11/10 Q1014 NOSIG
  • 240300Z AUTO 30002KT CAVOK 12/10 Q1014 NOSIG
  • 240230Z AUTO 00000KT CAVOK 12/11 Q1014 NOSIG
  • 240200Z AUTO 33002KT CAVOK 13/11 Q1014 NOSIG

TAF TAF LFMO
Valido dal 24 a 03 ore il 25 a 03 ore UTC


240200Z 2403/2503 VRB02KT CAVOK
TEMPO 2415/2420 21012KT 4000 SHRA BKN060TCU
PROB40
TEMPO 2415/2419 VRB15G25KT 2000 TSRA BKN050CB
Nessun NOTAM noto per questo aeroporto.



MetMap, La meteo Aeronautica in un colpo d'occhio ! - Copyright ORBIFLY Dicembre 2007 - Disclaimer

ORBIFLY MET'MAP TEAM :

Programmazione e sviluppo : Alexandra Zaïnal
Concezione e sviluppo : Baudouin d'Aumeries
Co-Programmazione e sviluppo : Marc-Olivier Méhu
Supporto tecnico e logistico : Manuel Goepfert
Aiuto per la traduzione : Arnaldo La Scala

Contatto : metmap@orbifly.com




FONTI E CREDITI :

   NOAA